Aérodrome :
LOGIN :

S'inscrire | Disclaimer

   EN    FR    IT 

 










Légende :    VFR   VFR Marginal   IFR   IFR Intensif   IFR Très Intensif
Visi : 
Plafond : 
>= 8 km
>= 3000ft
5 à 8 km
1000 à 3000 ft
1500m à 5 km
500 à 1000 ft
800 à 1500m
200 à 500 ft
< 800m
< 200 ft
Symboles :   Orages  Brouillard  Fortes neiges  Fortes précipitations  Vent > 20 kt
SIGMETs :   Divers  Orages  Givrage  Turbulence  Onde Orograph.  Cendres Volcan.






- Altitude de l'aérodrome : 218 ft
- Code IATA : LBG


LFPB - Paris / Le Bourget

DERNIER METAR :
  • 121800Z AUTO 16015KT 9999 -RA BKN013/// BKN018/// OVC024/// ///CB 07/05 Q0988 TEMPO 3000 RA BECMG 17015G25KT BKN010

METARs EXPIRÉS :
  • 121730Z AUTO 16016KT 9000 -RA BKN012/// OVC021/// ///CB 07/05 Q0989 TEMPO 3000 RA BECMG 17015G25KT OVC009
  • 121700Z AUTO 16017KT 7000 -RA BKN011/// OVC016/// ///TCU 07/05 Q0989 TEMPO 3000 RA BECMG 17015G25KT OVC009
  • 121630Z AUTO 16016KT 9999 -RA OVC011/// ///TCU 07/05 Q0990 TEMPO 3000 RA BECMG 17015G25KT OVC009
  • 121600Z AUTO 16016KT 9999 -DZ OVC010 06/05 Q0991 BECMG 17015G25KT
  • 121530Z AUTO 16018KT 9999 OVC009 06/05 Q0992 BECMG 17015G25KT

TAF TAF LFPB
Valide du 12 à 18h jusqu'au 13 à 18h UTC


121700Z 1218/1318 17015G25KT 7000 -RA BKN010
TEMPO 1218/1220 3000 RA
TEMPO 1301/1302 3000 RA
BECMG 1303/1305 BKN030
TEMPO 1303/1306 3000 SHRA BKN015TCU
TEMPO 1305/1317 26020G35KT
PROB40
TEMPO 1312/1314 27025G40KT 3000 SHRA BKN025TCU
ATIS : +33 1 48 62 43 92



MET'MAP, la Météo Aéronautique d'un coup d'oeil ! - Copyright ORBIFLY Décembre 2007 - Disclaimer

ORBIFLY MET'MAP TEAM :

Programmation & Développement : Alexandra Zaïnal
Sur une idée originale de : Baudouin d'Aumeries
Assistance à la programmation : Marc-Olivier Méhu
Soutien technique & logistique : Manuel Goepfert

Contact : metmap@orbifly.com




SOURCES & CREDITS :

   NOAA